sensor_id;sensor_type;location;lat;lon;timestamp;pressure;altitude;pressure_sealevel;temperature;humidity
45255;BME280;30989;52.078;21.014;2023-01-29T00:01:05;163338.84;;;-1.57;97.02
45255;BME280;30989;52.078;21.014;2023-01-29T00:03:32;163334.84;;;-1.58;96.23
45255;BME280;30989;52.078;21.014;2023-01-29T00:05:58;163342.81;;;-1.55;96.54
45255;BME280;30989;52.078;21.014;2023-01-29T00:08:24;163338.84;;;-1.57;96.51
45255;BME280;30989;52.078;21.014;2023-01-29T00:10:51;163341.50;;;-1.56;97.31
45255;BME280;30989;52.078;21.014;2023-01-29T00:13:16;163321.56;;;-1.64;95.89
45255;BME280;30989;52.078;21.014;2023-01-29T00:15:42;163324.22;;;-1.63;96.93
45255;BME280;30989;52.078;21.014;2023-01-29T00:18:09;163316.25;;;-1.66;97.46
45255;BME280;30989;52.078;21.014;2023-01-29T00:20:35;163330.88;;;-1.60;97.29
45255;BME280;30989;52.078;21.014;2023-01-29T00:23:00;163326.88;;;-1.62;96.65
45255;BME280;30989;52.078;21.014;2023-01-29T00:25:26;163329.53;;;-1.60;96.08
45255;BME280;30989;52.078;21.014;2023-01-29T00:27:51;163326.88;;;-1.62;96.20
45255;BME280;30989;52.078;21.014;2023-01-29T00:30:16;163321.56;;;-1.64;95.40
45255;BME280;30989;52.078;21.014;2023-01-29T00:32:44;163318.91;;;-1.65;96.35
45255;BME280;30989;52.078;21.014;2023-01-29T00:35:10;163316.25;;;-1.66;96.07
45255;BME280;30989;52.078;21.014;2023-01-29T00:37:36;163305.63;;;-1.70;95.59
45255;BME280;30989;52.078;21.014;2023-01-29T00:40:02;163302.97;;;-1.71;94.82
45255;BME280;30989;52.078;21.014;2023-01-29T00:42:27;163281.72;;;-1.79;94.17
45255;BME280;30989;52.078;21.014;2023-01-29T00:45:11;163276.41;;;-1.81;94.80
45255;BME280;30989;52.078;21.014;2023-01-29T00:47:37;163264.47;;;-1.85;95.55
45255;BME280;30989;52.078;21.014;2023-01-29T00:50:08;163267.13;;;-1.84;95.71
45255;BME280;30989;52.078;21.014;2023-01-29T00:52:34;163260.47;;;-1.87;95.43
45255;BME280;30989;52.078;21.014;2023-01-29T00:55:01;163249.88;;;-1.91;96.05
45255;BME280;30989;52.078;21.014;2023-01-29T00:57:29;163263.13;;;-1.86;96.76
45255;BME280;30989;52.078;21.014;2023-01-29T00:59:55;163247.22;;;-1.92;96.99
45255;BME280;30989;52.078;21.014;2023-01-29T01:02:21;163245.88;;;-1.92;97.12
45255;BME280;30989;52.078;21.014;2023-01-29T01:05:06;163273.75;;;-1.82;96.80
45255;BME280;30989;52.078;21.014;2023-01-29T01:07:34;163276.41;;;-1.81;96.18
45255;BME280;30989;52.078;21.014;2023-01-29T01:10:00;163265.78;;;-1.85;94.39
45255;BME280;30989;52.078;21.014;2023-01-29T01:12:44;163223.31;;;-2.01;94.59
45255;BME280;30989;52.078;21.014;2023-01-29T01:15:10;163232.59;;;-1.98;95.32
45255;BME280;30989;52.078;21.014;2023-01-29T01:17:36;163220.66;;;-2.02;95.08
45255;BME280;30989;52.078;21.014;2023-01-29T01:20:02;163210.03;;;-2.06;95.06
45255;BME280;30989;52.078;21.014;2023-01-29T01:22:27;163206.06;;;-2.08;95.22
45255;BME280;30989;52.078;21.014;2023-01-29T01:24:53;163221.97;;;-2.02;95.70
45255;BME280;30989;52.078;21.014;2023-01-29T01:27:19;163214.00;;;-2.05;95.14
45255;BME280;30989;52.078;21.014;2023-01-29T01:29:45;163198.09;;;-2.11;95.21
45255;BME280;30989;52.078;21.014;2023-01-29T01:32:11;163194.09;;;-2.12;94.85
45255;BME280;30989;52.078;21.014;2023-01-29T01:34:37;163190.13;;;-2.14;94.99
45255;BME280;30989;52.078;21.014;2023-01-29T01:37:03;163180.81;;;-2.17;94.87
45255;BME280;30989;52.078;21.014;2023-01-29T01:39:29;163188.78;;;-2.14;94.45
45255;BME280;30989;52.078;21.014;2023-01-29T01:41:55;163168.88;;;-2.22;94.68
45255;BME280;30989;52.078;21.014;2023-01-29T01:45:39;163176.84;;;-2.19;95.67
45255;BME280;30989;52.078;21.014;2023-01-29T01:48:02;163175.50;;;-2.19;95.11
45255;BME280;30989;52.078;21.014;2023-01-29T01:50:37;163171.53;;;-2.21;95.25
45255;BME280;30989;52.078;21.014;2023-01-29T01:53:10;163166.22;;;-2.23;95.56
45255;BME280;30989;52.078;21.014;2023-01-29T01:55:41;163164.91;;;-2.23;96.00
45255;BME280;30989;52.078;21.014;2023-01-29T02:00:57;163154.28;;;-2.28;96.18
45255;BME280;30989;52.078;21.014;2023-01-29T02:03:23;163170.22;;;-2.21;96.41
45255;BME280;30989;52.078;21.014;2023-01-29T02:06:10;163163.56;;;-2.24;96.41
45255;BME280;30989;52.078;21.014;2023-01-29T02:09:05;163183.47;;;-2.16;96.45
45255;BME280;30989;52.078;21.014;2023-01-29T02:11:52;163170.22;;;-2.21;96.00
45255;BME280;30989;52.078;21.014;2023-01-29T02:14:17;163172.88;;;-2.20;96.65
45255;BME280;30989;52.078;21.014;2023-01-29T02:16:44;163178.16;;;-2.18;96.08
45255;BME280;30989;52.078;21.014;2023-01-29T02:19:16;163184.81;;;-2.16;96.70
45255;BME280;30989;52.078;21.014;2023-01-29T02:22:05;163199.41;;;-2.10;97.22
45255;BME280;30989;52.078;21.014;2023-01-29T02:27:35;163190.13;;;-2.14;96.04
45255;BME280;30989;52.078;21.014;2023-01-29T02:30:16;163188.78;;;-2.14;96.40
45255;BME280;30989;52.078;21.014;2023-01-29T02:32:59;163172.88;;;-2.20;96.30
45255;BME280;30989;52.078;21.014;2023-01-29T02:35:33;163186.13;;;-2.15;96.91
45255;BME280;30989;52.078;21.014;2023-01-29T02:38:24;163191.44;;;-2.13;95.40
45255;BME280;30989;52.078;21.014;2023-01-29T02:40:56;163178.16;;;-2.18;96.29
45255;BME280;30989;52.078;21.014;2023-01-29T02:48:36;163167.56;;;-2.22;96.45
45255;BME280;30989;52.078;21.014;2023-01-29T02:51:07;163152.94;;;-2.28;96.03
45255;BME280;30989;52.078;21.014;2023-01-29T02:53:40;163151.63;;;-2.29;96.17
45255;BME280;30989;52.078;21.014;2023-01-29T02:56:16;163156.94;;;-2.27;96.64
45255;BME280;30989;52.078;21.014;2023-01-29T02:58:50;163143.66;;;-2.32;96.09
45255;BME280;30989;52.078;21.014;2023-01-29T03:01:19;163156.94;;;-2.27;96.98
45255;BME280;30989;52.078;21.014;2023-01-29T03:03:52;163148.97;;;-2.30;97.01
45255;BME280;30989;52.078;21.014;2023-01-29T03:06:22;163155.59;;;-2.27;96.82
45255;BME280;30989;52.078;21.014;2023-01-29T03:09:10;163159.59;;;-2.25;97.04
45255;BME280;30989;52.078;21.014;2023-01-29T03:11:48;163148.97;;;-2.30;96.65
45255;BME280;30989;52.078;21.014;2023-01-29T03:14:36;163158.25;;;-2.26;97.19
45255;BME280;30989;52.078;21.014;2023-01-29T03:17:28;163162.25;;;-2.24;97.18
45255;BME280;30989;52.078;21.014;2023-01-29T03:19:57;163162.25;;;-2.24;97.64
45255;BME280;30989;52.078;21.014;2023-01-29T03:22:23;163167.56;;;-2.22;97.75
45255;BME280;30989;52.078;21.014;2023-01-29T03:24:53;163160.91;;;-2.25;98.02
45255;BME280;30989;52.078;21.014;2023-01-29T03:27:42;163162.25;;;-2.24;97.78
45255;BME280;30989;52.078;21.014;2023-01-29T03:30:37;163176.84;;;-2.19;97.75
45255;BME280;30989;52.078;21.014;2023-01-29T03:33:50;163178.16;;;-2.18;97.57
45255;BME280;30989;52.078;21.014;2023-01-29T03:36:55;163170.22;;;-2.21;97.50
45255;BME280;30989;52.078;21.014;2023-01-29T03:39:24;163175.50;;;-2.19;97.97
45255;BME280;30989;52.078;21.014;2023-01-29T03:42:00;163178.16;;;-2.18;97.90
45255;BME280;30989;52.078;21.014;2023-01-29T03:50:04;163175.50;;;-2.19;98.05
45255;BME280;30989;52.078;21.014;2023-01-29T03:52:44;163175.50;;;-2.19;97.70
45255;BME280;30989;52.078;21.014;2023-01-29T03:55:39;163180.81;;;-2.17;98.46
45255;BME280;30989;52.078;21.014;2023-01-29T03:58:19;163174.19;;;-2.20;98.15
45255;BME280;30989;52.078;21.014;2023-01-29T04:00:56;163176.84;;;-2.19;98.68
45255;BME280;30989;52.078;21.014;2023-01-29T04:03:31;163183.47;;;-2.16;98.23
45255;BME280;30989;52.078;21.014;2023-01-29T04:11:12;163180.81;;;-2.17;98.59
45255;BME280;30989;52.078;21.014;2023-01-29T04:13:39;163170.22;;;-2.21;98.29
45255;BME280;30989;52.078;21.014;2023-01-29T04:16:07;163171.53;;;-2.21;98.48
45255;BME280;30989;52.078;21.014;2023-01-29T04:18:50;163180.81;;;-2.17;99.18
45255;BME280;30989;52.078;21.014;2023-01-29T04:21:23;163178.16;;;-2.18;98.83
45255;BME280;30989;52.078;21.014;2023-01-29T04:23:49;163191.44;;;-2.13;98.20
45255;BME280;30989;52.078;21.014;2023-01-29T04:31:33;163171.53;;;-2.21;99.05
45255;BME280;30989;52.078;21.014;2023-01-29T04:34:58;163191.44;;;-2.13;98.58
45255;BME280;30989;52.078;21.014;2023-01-29T04:37:24;163194.09;;;-2.12;99.07
45255;BME280;30989;52.078;21.014;2023-01-29T04:40:20;163194.09;;;-2.12;98.95
45255;BME280;30989;52.078;21.014;2023-01-29T04:43:07;163198.09;;;-2.11;98.34
45255;BME280;30989;52.078;21.014;2023-01-29T04:48:29;163199.41;;;-2.10;98.64
45255;BME280;30989;52.078;21.014;2023-01-29T04:51:02;163206.06;;;-2.08;98.98
45255;BME280;30989;52.078;21.014;2023-01-29T04:53:49;163207.38;;;-2.07;98.36
45255;BME280;30989;52.078;21.014;2023-01-29T04:56:24;163207.38;;;-2.07;98.56
45255;BME280;30989;52.078;21.014;2023-01-29T04:59:02;163202.06;;;-2.09;97.80
45255;BME280;30989;52.078;21.014;2023-01-29T05:01:29;163206.06;;;-2.08;98.24
45255;BME280;30989;52.078;21.014;2023-01-29T05:04:05;163203.41;;;-2.09;97.40
45255;BME280;30989;52.078;21.014;2023-01-29T05:06:34;163207.38;;;-2.07;97.54
45255;BME280;30989;52.078;21.014;2023-01-29T05:09:01;163214.00;;;-2.05;97.40
45255;BME280;30989;52.078;21.014;2023-01-29T05:11:29;163202.06;;;-2.09;97.96
45255;BME280;30989;52.078;21.014;2023-01-29T05:13:57;163204.72;;;-2.08;97.08
45255;BME280;30989;52.078;21.014;2023-01-29T05:16:25;163214.00;;;-2.05;98.10
45255;BME280;30989;52.078;21.014;2023-01-29T05:18:52;163212.69;;;-2.05;97.34
45255;BME280;30989;52.078;21.014;2023-01-29T05:21:18;163216.66;;;-2.04;97.30
45255;BME280;30989;52.078;21.014;2023-01-29T05:23:45;163208.69;;;-2.07;96.76
45255;BME280;30989;52.078;21.014;2023-01-29T05:26:21;163206.06;;;-2.08;96.87
45255;BME280;30989;52.078;21.014;2023-01-29T05:29:05;163214.00;;;-2.05;97.01
45255;BME280;30989;52.078;21.014;2023-01-29T05:31:31;163212.69;;;-2.05;97.55
45255;BME280;30989;52.078;21.014;2023-01-29T05:33:56;163208.69;;;-2.07;97.23
45255;BME280;30989;52.078;21.014;2023-01-29T05:36:22;163208.69;;;-2.07;97.37
45255;BME280;30989;52.078;21.014;2023-01-29T05:38:52;163218.00;;;-2.03;97.57
45255;BME280;30989;52.078;21.014;2023-01-29T05:41:18;163220.66;;;-2.02;97.25
45255;BME280;30989;52.078;21.014;2023-01-29T05:43:45;163219.31;;;-2.03;98.19
45255;BME280;30989;52.078;21.014;2023-01-29T05:46:10;163219.31;;;-2.03;97.86
45255;BME280;30989;52.078;21.014;2023-01-29T05:48:36;163229.94;;;-1.99;98.32
45255;BME280;30989;52.078;21.014;2023-01-29T05:51:03;163215.34;;;-2.04;97.49
45255;BME280;30989;52.078;21.014;2023-01-29T05:53:29;163228.63;;;-1.99;97.86
45255;BME280;30989;52.078;21.014;2023-01-29T05:55:55;163215.34;;;-2.04;97.55
45255;BME280;30989;52.078;21.014;2023-01-29T05:58:22;163218.00;;;-2.03;97.70
45255;BME280;30989;52.078;21.014;2023-01-29T06:00:48;163218.00;;;-2.03;97.99
45255;BME280;30989;52.078;21.014;2023-01-29T06:03:14;163215.34;;;-2.04;98.15
45255;BME280;30989;52.078;21.014;2023-01-29T06:05:39;163225.97;;;-2.00;97.78
45255;BME280;30989;52.078;21.014;2023-01-29T06:08:06;163235.25;;;-1.97;97.99
45255;BME280;30989;52.078;21.014;2023-01-29T06:10:32;163231.28;;;-1.98;98.54
45255;BME280;30989;52.078;21.014;2023-01-29T06:12:57;163239.25;;;-1.95;97.85
45255;BME280;30989;52.078;21.014;2023-01-29T06:15:23;163245.88;;;-1.92;97.89
45255;BME280;30989;52.078;21.014;2023-01-29T06:17:52;163245.88;;;-1.92;97.09
45255;BME280;30989;52.078;21.014;2023-01-29T06:20:18;163248.53;;;-1.91;97.73
45255;BME280;30989;52.078;21.014;2023-01-29T06:22:44;163247.22;;;-1.92;97.30
45255;BME280;30989;52.078;21.014;2023-01-29T06:25:10;163239.25;;;-1.95;97.79
45255;BME280;30989;52.078;21.014;2023-01-29T06:27:35;163231.28;;;-1.98;97.43
45255;BME280;30989;52.078;21.014;2023-01-29T06:30:02;163256.50;;;-1.88;97.30
45255;BME280;30989;52.078;21.014;2023-01-29T06:32:31;163260.47;;;-1.87;97.69
45255;BME280;30989;52.078;21.014;2023-01-29T06:34:57;163313.59;;;-1.67;98.24
45255;BME280;30989;52.078;21.014;2023-01-29T06:37:22;163310.94;;;-1.68;96.44
45255;BME280;30989;52.078;21.014;2023-01-29T06:39:47;163305.63;;;-1.70;97.00
45255;BME280;30989;52.078;21.014;2023-01-29T06:42:13;163297.66;;;-1.73;96.33
45255;BME280;30989;52.078;21.014;2023-01-29T06:44:38;163300.31;;;-1.72;97.28
45255;BME280;30989;52.078;21.014;2023-01-29T06:47:04;163302.97;;;-1.71;96.68
45255;BME280;30989;52.078;21.014;2023-01-29T06:49:30;163297.66;;;-1.73;96.19
45255;BME280;30989;52.078;21.014;2023-01-29T06:51:56;163295.00;;;-1.74;96.80
45255;BME280;30989;52.078;21.014;2023-01-29T06:54:21;163281.72;;;-1.79;96.35
45255;BME280;30989;52.078;21.014;2023-01-29T06:56:47;163281.72;;;-1.79;96.27
45255;BME280;30989;52.078;21.014;2023-01-29T06:59:12;163291.03;;;-1.75;96.45
45255;BME280;30989;52.078;21.014;2023-01-29T07:01:38;163296.34;;;-1.73;96.64
45255;BME280;30989;52.078;21.014;2023-01-29T07:04:06;163288.38;;;-1.76;96.73
45255;BME280;30989;52.078;21.014;2023-01-29T07:06:32;163302.97;;;-1.71;95.90
45255;BME280;30989;52.078;21.014;2023-01-29T07:08:58;163301.66;;;-1.71;95.93
45255;BME280;30989;52.078;21.014;2023-01-29T07:11:24;163292.34;;;-1.75;95.84
45255;BME280;30989;52.078;21.014;2023-01-29T07:13:49;163300.31;;;-1.72;95.69
45255;BME280;30989;52.078;21.014;2023-01-29T07:16:14;163301.66;;;-1.71;95.51
45255;BME280;30989;52.078;21.014;2023-01-29T07:18:40;163291.03;;;-1.75;96.65
45255;BME280;30989;52.078;21.014;2023-01-29T07:21:06;163300.31;;;-1.72;96.38
45255;BME280;30989;52.078;21.014;2023-01-29T07:23:33;163324.22;;;-1.63;96.23
45255;BME280;30989;52.078;21.014;2023-01-29T07:26:00;163320.25;;;-1.64;95.76
45255;BME280;30989;52.078;21.014;2023-01-29T07:28:26;163321.56;;;-1.64;95.63
45255;BME280;30989;52.078;21.014;2023-01-29T07:30:58;163334.84;;;-1.58;95.60
45255;BME280;30989;52.078;21.014;2023-01-29T07:33:24;163330.88;;;-1.60;95.41
45255;BME280;30989;52.078;21.014;2023-01-29T07:35:50;163337.50;;;-1.57;95.90
45255;BME280;30989;52.078;21.014;2023-01-29T07:38:19;163337.50;;;-1.57;95.34
45255;BME280;30989;52.078;21.014;2023-01-29T07:40:45;163334.84;;;-1.58;95.34
45255;BME280;30989;52.078;21.014;2023-01-29T07:43:10;163348.13;;;-1.53;95.70
45255;BME280;30989;52.078;21.014;2023-01-29T07:45:38;163345.47;;;-1.54;95.38
45255;BME280;30989;52.078;21.014;2023-01-29T07:48:05;163341.50;;;-1.56;95.07
45255;BME280;30989;52.078;21.014;2023-01-29T07:50:34;163358.75;;;-1.49;95.29
45255;BME280;30989;52.078;21.014;2023-01-29T07:53:01;163361.41;;;-1.48;95.14
45255;BME280;30989;52.078;21.014;2023-01-29T07:55:26;163365.41;;;-1.47;94.49
45255;BME280;30989;52.078;21.014;2023-01-29T07:58:01;163366.72;;;-1.46;93.87
45255;BME280;30989;52.078;21.014;2023-01-29T08:00:28;163373.38;;;-1.44;94.43
45255;BME280;30989;52.078;21.014;2023-01-29T08:03:04;163399.94;;;-1.34;94.99
45255;BME280;30989;52.078;21.014;2023-01-29T08:05:30;163398.59;;;-1.34;94.98
45255;BME280;30989;52.078;21.014;2023-01-29T08:07:55;163393.28;;;-1.36;94.11
45255;BME280;30989;52.078;21.014;2023-01-29T08:10:21;163426.50;;;-1.23;93.50
45255;BME280;30989;52.078;21.014;2023-01-29T08:12:46;163423.84;;;-1.24;92.88
45255;BME280;30989;52.078;21.014;2023-01-29T08:15:11;163430.47;;;-1.22;94.49
45255;BME280;30989;52.078;21.014;2023-01-29T08:17:37;163411.88;;;-1.29;93.31
45255;BME280;30989;52.078;21.014;2023-01-29T08:20:05;163417.19;;;-1.27;93.40
45255;BME280;30989;52.078;21.014;2023-01-29T08:22:31;163439.78;;;-1.18;94.53
45255;BME280;30989;52.078;21.014;2023-01-29T08:24:57;163441.09;;;-1.18;93.88
45255;BME280;30989;52.078;21.014;2023-01-29T08:27:22;163446.41;;;-1.16;94.02
45255;BME280;30989;52.078;21.014;2023-01-29T08:29:47;163441.09;;;-1.18;92.66
45255;BME280;30989;52.078;21.014;2023-01-29T08:32:13;163443.75;;;-1.17;93.46
45255;BME280;30989;52.078;21.014;2023-01-29T08:34:38;163454.38;;;-1.13;93.76
45255;BME280;30989;52.078;21.014;2023-01-29T08:37:04;163446.41;;;-1.16;92.28
45255;BME280;30989;52.078;21.014;2023-01-29T08:39:29;163441.09;;;-1.18;92.39
45255;BME280;30989;52.078;21.014;2023-01-29T08:41:55;163454.38;;;-1.13;93.48
45255;BME280;30989;52.078;21.014;2023-01-29T08:44:20;163459.72;;;-1.11;93.49
45255;BME280;30989;52.078;21.014;2023-01-29T08:46:45;163466.34;;;-1.08;93.43
45255;BME280;30989;52.078;21.014;2023-01-29T08:49:11;163474.31;;;-1.05;92.44
45255;BME280;30989;52.078;21.014;2023-01-29T08:51:36;163480.97;;;-1.03;92.71
45255;BME280;30989;52.078;21.014;2023-01-29T08:54:02;163465.03;;;-1.09;92.71
45255;BME280;30989;52.078;21.014;2023-01-29T08:56:27;163465.03;;;-1.09;93.83
45255;BME280;30989;52.078;21.014;2023-01-29T08:58:53;163494.25;;;-0.98;93.61
45255;BME280;30989;52.078;21.014;2023-01-29T09:01:18;163500.91;;;-0.95;93.86
45255;BME280;30989;52.078;21.014;2023-01-29T09:03:44;163511.53;;;-0.91;93.02
45255;BME280;30989;52.078;21.014;2023-01-29T09:06:11;163504.88;;;-0.93;92.77
45255;BME280;30989;52.078;21.014;2023-01-29T09:08:40;163504.88;;;-0.93;92.88
45255;BME280;30989;52.078;21.014;2023-01-29T09:11:05;163519.50;;;-0.88;93.54
45255;BME280;30989;52.078;21.014;2023-01-29T09:13:31;163528.78;;;-0.84;92.62
45255;BME280;30989;52.078;21.014;2023-01-29T09:16:01;163534.13;;;-0.82;92.85
45255;BME280;30989;52.078;21.014;2023-01-29T09:18:28;163555.38;;;-0.74;93.83
45255;BME280;30989;52.078;21.014;2023-01-29T09:20:55;163571.31;;;-0.68;94.46
45255;BME280;30989;52.078;21.014;2023-01-29T09:23:21;163616.50;;;-0.51;92.72
45255;BME280;30989;52.078;21.014;2023-01-29T09:25:47;163613.84;;;-0.52;92.25
45255;BME280;30989;52.078;21.014;2023-01-29T09:28:13;163612.53;;;-0.52;91.89
45255;BME280;30989;52.078;21.014;2023-01-29T09:30:38;163611.19;;;-0.53;92.50
45255;BME280;30989;52.078;21.014;2023-01-29T09:33:04;163616.50;;;-0.51;92.28
45255;BME280;30989;52.078;21.014;2023-01-29T09:35:30;163629.81;;;-0.46;92.38
45255;BME280;30989;52.078;21.014;2023-01-29T09:37:56;163661.72;;;-0.34;93.59
45255;BME280;30989;52.078;21.014;2023-01-29T09:40:47;163684.31;;;-0.25;92.24
45255;BME280;30989;52.078;21.014;2023-01-29T09:46:04;163685.63;;;-0.24;93.11
45255;BME280;30989;52.078;21.014;2023-01-29T09:48:33;163669.69;;;-0.30;92.70
45255;BME280;30989;52.078;21.014;2023-01-29T09:51:05;163706.91;;;-0.16;93.13
45255;BME280;30989;52.078;21.014;2023-01-29T09:53:39;163704.25;;;-0.17;93.79
45255;BME280;30989;52.078;21.014;2023-01-29T09:56:11;163709.56;;;-0.15;93.50
45255;BME280;30989;52.078;21.014;2023-01-29T09:58:40;163705.56;;;-0.17;92.63
45255;BME280;30989;52.078;21.014;2023-01-29T10:05:01;163698.94;;;-0.19;92.40
45255;BME280;30989;52.078;21.014;2023-01-29T10:12:36;163815.97;;;0.25;92.72
45255;BME280;30989;52.078;21.014;2023-01-29T10:15:14;163855.88;;;0.41;90.85
45255;BME280;30989;52.078;21.014;2023-01-29T10:20:45;163877.16;;;0.49;91.76
45255;BME280;30989;52.078;21.014;2023-01-29T10:23:35;163921.06;;;0.66;91.05
45255;BME280;30989;52.078;21.014;2023-01-29T10:26:02;163911.75;;;0.62;89.68
45255;BME280;30989;52.078;21.014;2023-01-29T10:28:34;163897.13;;;0.56;89.86
45255;BME280;30989;52.078;21.014;2023-01-29T10:31:10;163850.56;;;0.39;91.58
45255;BME280;30989;52.078;21.014;2023-01-29T10:33:40;163862.53;;;0.43;91.31
45255;BME280;30989;52.078;21.014;2023-01-29T10:36:16;163847.91;;;0.38;91.94
45255;BME280;30989;52.078;21.014;2023-01-29T10:38:48;163839.94;;;0.35;92.80
45255;BME280;30989;52.078;21.014;2023-01-29T10:50:58;163804.03;;;0.21;95.19
45255;BME280;30989;52.078;21.014;2023-01-29T10:53:04;163815.97;;;0.25;95.45
45255;BME280;30989;52.078;21.014;2023-01-29T10:58:30;163782.75;;;0.13;95.79
45255;BME280;30989;52.078;21.014;2023-01-29T11:00:58;163753.50;;;0.02;96.82
45255;BME280;30989;52.078;21.014;2023-01-29T11:03:26;163749.50;;;0.00;97.52
45255;BME280;30989;52.078;21.014;2023-01-29T11:08:24;163744.13;;;-0.02;98.43
45255;BME280;30989;52.078;21.014;2023-01-29T11:11:11;163744.13;;;-0.02;98.93
45255;BME280;30989;52.078;21.014;2023-01-29T11:14:04;163716.22;;;-0.13;99.36
45255;BME280;30989;52.078;21.014;2023-01-29T11:16:46;163710.88;;;-0.15;99.95
45255;BME280;30989;52.078;21.014;2023-01-29T11:19:12;163729.50;;;-0.08;100.00
45255;BME280;30989;52.078;21.014;2023-01-29T11:21:58;163733.50;;;-0.06;100.00
45255;BME280;30989;52.078;21.014;2023-01-29T11:24:25;163716.22;;;-0.13;100.00
45255;BME280;30989;52.078;21.014;2023-01-29T11:26:53;163722.84;;;-0.10;100.00
45255;BME280;30989;52.078;21.014;2023-01-29T11:31:52;163758.81;;;0.04;100.00
45255;BME280;30989;52.078;21.014;2023-01-29T11:34:20;163788.06;;;0.15;100.00
45255;BME280;30989;52.078;21.014;2023-01-29T11:36:55;163794.72;;;0.17;100.00
45255;BME280;30989;52.078;21.014;2023-01-29T11:39:22;163790.72;;;0.16;100.00
45255;BME280;30989;52.078;21.014;2023-01-29T11:41:50;163812.00;;;0.24;100.00
45255;BME280;30989;52.078;21.014;2023-01-29T11:46:54;163792.06;;;0.16;100.00
45255;BME280;30989;52.078;21.014;2023-01-29T11:49:40;163797.38;;;0.18;100.00
45255;BME280;30989;52.078;21.014;2023-01-29T11:52:09;163789.38;;;0.15;100.00
45255;BME280;30989;52.078;21.014;2023-01-29T11:57:33;163770.78;;;0.08;100.00
45255;BME280;30989;52.078;21.014;2023-01-29T12:00:04;163770.78;;;0.08;100.00
45255;BME280;30989;52.078;21.014;2023-01-29T12:02:37;163749.50;;;0.00;100.00
45255;BME280;30989;52.078;21.014;2023-01-29T12:05:21;163728.16;;;-0.08;100.00
45255;BME280;30989;52.078;21.014;2023-01-29T12:07:49;163730.84;;;-0.07;100.00
45255;BME280;30989;52.078;21.014;2023-01-29T12:10:37;163746.78;;;-0.01;100.00
45255;BME280;30989;52.078;21.014;2023-01-29T12:13:04;163732.16;;;-0.07;100.00
45255;BME280;30989;52.078;21.014;2023-01-29T12:15:30;163717.53;;;-0.12;100.00
45255;BME280;30989;52.078;21.014;2023-01-29T12:20:56;163686.97;;;-0.24;100.00
45255;BME280;30989;52.078;21.014;2023-01-29T12:26:11;163641.75;;;-0.41;100.00
45255;BME280;30989;52.078;21.014;2023-01-29T12:31:34;163640.44;;;-0.42;100.00
45255;BME280;30989;52.078;21.014;2023-01-29T12:34:09;163643.09;;;-0.41;100.00
45255;BME280;30989;52.078;21.014;2023-01-29T12:36:54;163625.81;;;-0.47;100.00
45255;BME280;30989;52.078;21.014;2023-01-29T12:39:20;163628.47;;;-0.46;100.00
45255;BME280;30989;52.078;21.014;2023-01-29T12:41:59;163629.81;;;-0.46;100.00
45255;BME280;30989;52.078;21.014;2023-01-29T12:47:01;163623.16;;;-0.48;100.00
45255;BME280;30989;52.078;21.014;2023-01-29T12:49:32;163623.16;;;-0.48;100.00
45255;BME280;30989;52.078;21.014;2023-01-29T12:54:38;163625.81;;;-0.47;100.00
45255;BME280;30989;52.078;21.014;2023-01-29T12:57:13;163611.19;;;-0.53;100.00
45255;BME280;30989;52.078;21.014;2023-01-29T12:59:47;163613.84;;;-0.52;100.00
45255;BME280;30989;52.078;21.014;2023-01-29T13:02:33;163639.09;;;-0.42;100.00
45255;BME280;30989;52.078;21.014;2023-01-29T13:05:25;163644.41;;;-0.40;100.00
45255;BME280;30989;52.078;21.014;2023-01-29T13:08:02;163635.13;;;-0.44;100.00
45255;BME280;30989;52.078;21.014;2023-01-29T13:10:36;163629.81;;;-0.46;100.00
45255;BME280;30989;52.078;21.014;2023-01-29T13:13:13;163620.50;;;-0.49;100.00
45255;BME280;30989;52.078;21.014;2023-01-29T13:15:41;163627.16;;;-0.47;100.00
45255;BME280;30989;52.078;21.014;2023-01-29T13:21:02;163604.56;;;-0.55;100.00
45255;BME280;30989;52.078;21.014;2023-01-29T13:23:38;163591.25;;;-0.60;100.00
45255;BME280;30989;52.078;21.014;2023-01-29T13:26:10;163583.28;;;-0.63;100.00
45255;BME280;30989;52.078;21.014;2023-01-29T13:28:35;163579.28;;;-0.65;100.00
45255;BME280;30989;52.078;21.014;2023-01-29T13:31:25;163592.59;;;-0.60;100.00
45255;BME280;30989;52.078;21.014;2023-01-29T13:36:29;163588.59;;;-0.61;100.00
45255;BME280;30989;52.078;21.014;2023-01-29T13:39:00;163587.28;;;-0.62;100.00
45255;BME280;30989;52.078;21.014;2023-01-29T13:41:35;163580.63;;;-0.65;100.00
45255;BME280;30989;52.078;21.014;2023-01-29T13:44:04;163583.28;;;-0.63;100.00
45255;BME280;30989;52.078;21.014;2023-01-29T13:46:30;163581.97;;;-0.64;100.00
45255;BME280;30989;52.078;21.014;2023-01-29T13:48:56;163581.97;;;-0.64;100.00
45255;BME280;30989;52.078;21.014;2023-01-29T13:51:32;163558.03;;;-0.73;100.00
45255;BME280;30989;52.078;21.014;2023-01-29T13:54:06;163570.00;;;-0.69;100.00
45255;BME280;30989;52.078;21.014;2023-01-29T13:59:00;163515.50;;;-0.89;100.00
45255;BME280;30989;52.078;21.014;2023-01-29T14:04:27;163534.13;;;-0.82;100.00
45255;BME280;30989;52.078;21.014;2023-01-29T14:06:59;163534.13;;;-0.82;100.00
45255;BME280;30989;52.078;21.014;2023-01-29T14:12:06;163494.25;;;-0.98;100.00
45255;BME280;30989;52.078;21.014;2023-01-29T14:17:25;163499.56;;;-0.95;100.00
45255;BME280;30989;52.078;21.014;2023-01-29T14:19:55;163504.88;;;-0.93;100.00
45255;BME280;30989;52.078;21.014;2023-01-29T14:22:26;163512.84;;;-0.90;100.00
45255;BME280;30989;52.078;21.014;2023-01-29T14:24:55;163512.84;;;-0.90;100.00
45255;BME280;30989;52.078;21.014;2023-01-29T14:27:23;163504.88;;;-0.93;100.00
45255;BME280;30989;52.078;21.014;2023-01-29T14:29:58;163510.19;;;-0.91;100.00
45255;BME280;30989;52.078;21.014;2023-01-29T14:32:26;163488.94;;;-1.00;100.00
45255;BME280;30989;52.078;21.014;2023-01-29T14:35:04;163520.81;;;-0.87;100.00